Weather History for Mount Pleasant, IA

Change the Weather History Date:

Thursday, March 27, 2014

  Actual Average Record
Temperature  
Mean Temperature 46 °F -  
Max Temperature 55 °F 55 °F 78 °F (2007)
Min Temperature 37 °F 33 °F 13 °F (1964)
Degree Days  
Heating Degree Days 19    
Moisture  
Dew Point 41 °F    
Average Humidity 85    
Maximum Humidity 95    
Minimum Humidity 71    
Precipitation  
Precipitation 0.03 in - - ()
Sea Level Pressure  
Sea Level Pressure 29.59 in    
Wind  
Wind Speed 17 mph (SSE)    
Max Wind Speed 33 mph    
Max Gust Speed 46 mph    
Visibility 8 miles    
Events Rain    
Averages and records for this station are not official NWS values.
T = Trace of Precipitation, MM = Missing Value Source: NWS Daily Summary

Daily Weather History Graph

Daily Weather History Graph

Search for Another Location

Airport:

Trip Planner

Search our weather history database for the weather conditions in past years. The results will help you decide how hot, cold, wet, or windy it might be!

Date:

Astronomy

Mar. 27, 2014 Rise Set
Actual Time 6:57 AM CDT 7:25 PM CDT
Civil Twilight 6:30 AM CDT 7:53 PM CDT
Nautical Twilight 5:57 AM CDT 8:25 PM CDT
Astronomical Twilight 5:24 AM CDT 8:59 PM CDT
Moon 4:50 AM CDT (3/27) 4:12 PM CDT (3/27)
Length of Visible Light 13h 23m
Length of Day
12h 27m
Waning Crescent, 13% of the Moon is Illuminated
Mar 27
Waning Crescent
Mar 30
New
Apr 7
First Quarter
Apr 15
Full
Apr 22
Last Quarter

Hourly Weather History & Observations

Time (CDT) Temp. Windchill Dew Point Humidity Pressure Visibility Wind Dir Wind Speed Gust Speed Precip Events Conditions
12:15 AM 41.9 °F 33.7 °F 33.1 °F 71% 29.86 in 10.0 mi South 17.3 mph 25.3 mph N/A Rain Light Rain
12:35 AM 41.0 °F 32.2 °F 34.2 °F 77% 29.86 in 7.0 mi South 18.4 mph 24.2 mph N/A Rain Light Rain
12:55 AM 40.3 °F 31.9 °F 35.4 °F 83% 29.85 in 7.0 mi South 16.1 mph - N/A Rain Light Rain
1:15 AM 40.1 °F 31.3 °F 36.3 °F 86% 29.84 in 7.0 mi South 17.3 mph 20.7 mph N/A Rain Light Rain
1:35 AM 40.1 °F 31.3 °F 37.0 °F 89% 29.83 in 7.0 mi South 17.3 mph 23.0 mph N/A Rain Light Rain
1:55 AM 39.7 °F 31.2 °F 37.4 °F 91% 29.82 in 7.0 mi SSE 16.1 mph - N/A   Drizzle
2:15 AM 39.6 °F 30.3 °F 37.4 °F 92% 29.81 in 7.0 mi SSE 18.4 mph 23.0 mph N/A Rain Rain
2:35 AM 39.4 °F 30.1 °F 37.6 °F 93% 29.80 in 5.0 mi SSE 18.4 mph 24.2 mph N/A Rain Light Rain
2:55 AM 39.2 °F 30.2 °F 37.4 °F 93% 29.79 in 5.0 mi SSE 17.3 mph 21.9 mph N/A Rain Light Rain
3:15 AM 39.2 °F 30.8 °F 37.4 °F 93% 29.78 in 5.0 mi SSE 15.0 mph 23.0 mph N/A Rain Light Rain
3:35 AM 38.8 °F 30.0 °F 37.2 °F 94% 29.76 in 5.0 mi SSE 16.1 mph - N/A Rain Rain
3:55 AM 38.5 °F 30.3 °F 36.9 °F 94% 29.75 in 5.0 mi SSE 13.8 mph - N/A   Drizzle
4:15 AM 38.3 °F 30.5 °F 36.7 °F 94% 29.74 in 5.0 mi SSE 12.7 mph - N/A Rain Light Rain
4:35 AM 37.9 °F 28.9 °F 36.5 °F 95% 29.73 in 5.0 mi SSE 16.1 mph - N/A Rain Light Rain
4:55 AM 37.8 °F 28.3 °F 36.5 °F 95% 29.72 in 5.0 mi SSE 17.3 mph - N/A   Overcast
5:15 AM 37.8 °F 28.3 °F 36.5 °F 95% 29.71 in 5.0 mi SSE 17.3 mph 21.9 mph N/A   Overcast
5:35 AM 37.9 °F 29.2 °F 36.7 °F 95% 29.70 in 5.0 mi SSE 15.0 mph - N/A   Overcast
5:55 AM 38.3 °F 29.3 °F 36.7 °F 94% 29.69 in 5.0 mi SSE 16.1 mph - N/A   Overcast
6:15 AM 38.3 °F 30.5 °F 36.7 °F 94% 29.69 in 7.0 mi SSE 12.7 mph 20.7 mph N/A   Overcast
6:35 AM 38.5 °F 31.1 °F 36.9 °F 94% 29.69 in 7.0 mi SSE 11.5 mph - N/A   Overcast
6:55 AM 38.7 °F 30.5 °F 36.9 °F 93% 29.69 in 7.0 mi SSE 13.8 mph - N/A   Overcast
7:15 AM 38.7 °F 30.5 °F 37.0 °F 94% 29.69 in 5.0 mi SSE 13.8 mph - N/A   Overcast
7:35 AM 38.7 °F 30.1 °F 37.4 °F 95% 29.68 in 3.0 mi SSE 15.0 mph - N/A   Overcast
7:55 AM 38.7 °F 30.9 °F 37.4 °F 95% 29.68 in 5.0 mi SSE 12.7 mph - N/A   Overcast
8:15 AM 39.2 °F 30.8 °F 37.4 °F 93% 29.66 in 5.0 mi SE 15.0 mph - N/A   Overcast
8:35 AM 39.2 °F 30.5 °F 37.4 °F 93% 29.66 in 7.0 mi SE 16.1 mph 19.6 mph N/A   Overcast
8:55 AM 39.9 °F 31.1 °F 37.4 °F 91% 29.65 in 7.0 mi SSE 17.3 mph 21.9 mph N/A   Light Drizzle
9:15 AM 40.3 °F 31.3 °F 37.9 °F 91% 29.64 in 5.0 mi SSE 18.4 mph - N/A Rain Light Rain
9:35 AM 41.4 °F 33.3 °F 38.8 °F 91% 29.63 in 7.0 mi SSE 16.1 mph - N/A   Overcast
9:55 AM 42.3 °F 34.1 °F 38.8 °F 88% 29.62 in 10.0 mi SSE 17.3 mph - N/A   Overcast
10:15 AM 43.2 °F 35.3 °F 39.4 °F 86% 29.62 in 10.0 mi SSE 17.3 mph 23.0 mph N/A   Overcast
10:35 AM 43.2 °F 35.0 °F 38.8 °F 85% 29.61 in 10.0 mi SSE 18.4 mph 23.0 mph N/A   Overcast
10:55 AM 44.6 °F 36.9 °F 40.1 °F 84% 29.60 in 10.0 mi SSE 18.4 mph 25.3 mph N/A   Overcast
11:15 AM 44.4 °F 36.4 °F 39.9 °F 84% 29.59 in 10.0 mi SSE 19.6 mph 25.3 mph N/A   Overcast
11:35 AM 45.3 °F 38.7 °F 40.3 °F 83% 29.57 in 10.0 mi SSE 15.0 mph 23.0 mph N/A   Overcast
11:55 AM 46.6 °F - 40.8 °F 80% 29.56 in 10.0 mi SSE 17.3 mph 25.3 mph N/A   Overcast
12:15 PM 47.3 °F - 40.8 °F 78% 29.55 in 10.0 mi South 18.4 mph 23.0 mph N/A   Overcast
12:35 PM 48.0 °F - 40.3 °F 75% 29.55 in 10.0 mi SSE 20.7 mph 26.5 mph N/A   Overcast
12:55 PM 48.2 °F - 40.3 °F 74% 29.53 in 10.0 mi SSE 19.6 mph 26.5 mph N/A   Overcast
1:15 PM 48.6 °F - 40.5 °F 74% 29.53 in 10.0 mi SSE 19.6 mph 23.0 mph N/A   Overcast
1:35 PM 49.3 °F - 41.4 °F 74% 29.51 in 10.0 mi SSE 18.4 mph - N/A   Overcast
1:55 PM 50.0 °F - 42.1 °F 74% 29.50 in 10.0 mi SSE 16.1 mph 25.3 mph N/A   Overcast
2:15 PM 50.4 °F - 42.1 °F 73% 29.49 in 10.0 mi SSE 16.1 mph 24.2 mph N/A   Overcast
2:35 PM 50.5 °F - 42.8 °F 75% 29.49 in 10.0 mi SSE 16.1 mph 21.9 mph N/A   Overcast
2:55 PM 50.9 °F - 43.5 °F 76% 29.48 in 10.0 mi SSE 16.1 mph - N/A   Overcast
3:15 PM 51.3 °F - 44.6 °F 78% 29.48 in 7.0 mi SSE 17.3 mph 23.0 mph N/A   Overcast
3:35 PM 51.8 °F - 46.2 °F 81% 29.46 in 4.0 mi South 15.0 mph 24.2 mph N/A Rain Light Rain
3:55 PM 51.8 °F - 47.8 °F 86% 29.45 in 4.0 mi SSE 16.1 mph 24.2 mph N/A   Overcast
4:15 PM 52.2 °F - 48.0 °F 86% 29.44 in 10.0 mi SSE 15.0 mph 26.5 mph N/A   Overcast
4:35 PM 53.6 °F - 48.2 °F 82% 29.42 in 10.0 mi SSE 18.4 mph 26.5 mph N/A   Overcast
4:55 PM 54.5 °F - 47.5 °F 77% 29.40 in 10.0 mi SSE 20.7 mph 27.6 mph N/A   Overcast
5:15 PM 54.5 °F - 47.3 °F 77% 29.37 in 10.0 mi SSE 20.7 mph 27.6 mph N/A   Overcast
5:35 PM 54.7 °F - 47.3 °F 76% 29.38 in 10.0 mi SSE 21.9 mph 28.8 mph N/A   Mostly Cloudy
5:55 PM 55.4 °F - 47.3 °F 74% 29.38 in 10.0 mi SSE 17.3 mph 26.5 mph N/A   Scattered Clouds
6:15 PM 55.0 °F - 47.3 °F 75% 29.38 in 10.0 mi SSE 20.7 mph 26.5 mph N/A   Clear
6:35 PM 54.3 °F - 47.7 °F 78% 29.42 in 10.0 mi South 15.0 mph 25.3 mph N/A Rain Rain
6:55 PM 53.1 °F - 49.8 °F 89% 29.39 in 4.0 mi SSE 8.1 mph - N/A Rain Heavy Rain
7:15 PM 52.9 °F - 50.5 °F 92% 29.38 in 10.0 mi SSE 8.1 mph - N/A Rain Light Rain
7:55 PM 52.7 °F - 50.4 °F 92% 29.38 in 10.0 mi South 10.4 mph - N/A   Overcast
8:15 PM 53.2 °F - 50.4 °F 90% 29.37 in 10.0 mi South 20.7 mph 26.5 mph 0.01 in   Overcast
8:35 PM 53.8 °F - 50.5 °F 89% 29.38 in 10.0 mi SSW 19.6 mph 28.8 mph 0.01 in   Overcast
8:55 PM 51.1 °F - 44.8 °F 79% 29.42 in 10.0 mi SW 28.8 mph 41.4 mph 0.01 in   Mostly Cloudy
9:15 PM 45.9 °F 36.1 °F 40.8 °F 83% 29.44 in 10.0 mi WSW 32.2 mph 44.9 mph N/A   Overcast
9:35 PM 44.8 °F 34.5 °F 40.3 °F 84% 29.44 in 10.0 mi WSW 33.4 mph 46.0 mph N/A   Overcast
9:55 PM 43.9 °F 34.7 °F 39.2 °F 84% 29.47 in 10.0 mi WSW 24.2 mph 34.5 mph N/A   Overcast
10:15 PM 43.7 °F 34.1 °F 39.2 °F 84% 29.48 in 10.0 mi SW 26.5 mph 33.4 mph N/A   Overcast
10:35 PM 44.1 °F 34.8 °F 39.6 °F 84% 29.48 in 10.0 mi WSW 25.3 mph 35.7 mph N/A   Overcast
10:55 PM 44.1 °F 35.0 °F 39.9 °F 85% 29.51 in 10.0 mi WSW 24.2 mph 32.2 mph 0.01 in   Overcast
11:15 PM 44.4 °F 34.7 °F 38.5 °F 80% 29.54 in 10.0 mi West 28.8 mph 38.0 mph 0.01 in   Overcast
11:35 PM 43.5 °F 32.8 °F 38.5 °F 82% 29.55 in 7.0 mi West 33.4 mph 44.9 mph 0.01 in   Overcast
11:55 PM 42.3 °F 32.4 °F 36.5 °F 80% 29.58 in 10.0 mi West 25.3 mph 35.7 mph 0.01 in   Overcast